createdAt,value
2023-09-27T00:02:05.843Z,3.67
2023-09-27T00:04:33.597Z,3.60
2023-09-27T00:07:01.290Z,3.40
2023-09-27T00:09:32.614Z,3.17
2023-09-27T00:12:04.984Z,3.58
2023-09-27T00:14:33.076Z,3.60
2023-09-27T00:17:00.719Z,3.60
2023-09-27T00:19:28.463Z,3.38
2023-09-27T00:21:56.221Z,3.33
2023-09-27T00:24:24.124Z,3.78
2023-09-27T00:26:53.379Z,3.58
2023-09-27T00:29:21.173Z,3.60
2023-09-27T00:31:48.932Z,3.40
2023-09-27T00:34:16.937Z,3.67
2023-09-27T00:36:44.557Z,3.85
2023-09-27T00:39:15.095Z,3.90
2023-09-27T00:41:43.179Z,3.55
2023-09-27T00:44:12.158Z,3.50
2023-09-27T00:46:41.072Z,3.33
2023-09-27T00:49:09.532Z,3.80
2023-09-27T00:51:37.606Z,3.60
2023-09-27T00:54:06.480Z,3.40
2023-09-27T00:56:35.292Z,3.50
2023-09-27T00:59:04.014Z,3.33
2023-09-27T01:01:35.002Z,3.35
2023-09-27T01:04:03.347Z,3.70
2023-09-27T01:06:31.547Z,3.53
2023-09-27T01:08:59.118Z,3.67
2023-09-27T01:11:27.111Z,3.45
2023-09-27T01:13:54.850Z,3.95
2023-09-27T01:16:22.650Z,3.80
2023-09-27T01:18:51.640Z,3.85
2023-09-27T01:21:20.472Z,3.90
2023-09-27T01:23:51.447Z,3.47
2023-09-27T01:26:19.764Z,3.65
2023-09-27T01:28:47.950Z,3.70
2023-09-27T01:31:15.809Z,3.47
2023-09-27T01:33:43.488Z,3.92
2023-09-27T01:36:12.795Z,3.60
2023-09-27T01:38:40.651Z,3.47
2023-09-27T01:41:09.706Z,3.58
2023-09-27T01:43:37.295Z,3.80
2023-09-27T01:46:05.484Z,3.30
2023-09-27T01:48:33.421Z,3.70
2023-09-27T01:51:01.006Z,3.50
2023-09-27T01:53:28.749Z,3.40
2023-09-27T01:55:56.488Z,3.70
2023-09-27T01:58:25.573Z,3.63
2023-09-27T02:00:53.217Z,3.63
2023-09-27T02:03:21.193Z,3.35
2023-09-27T02:05:48.983Z,3.65
2023-09-27T02:08:17.527Z,3.75
2023-09-27T02:10:45.252Z,3.78
2023-09-27T02:13:13.074Z,3.58
2023-09-27T02:15:42.031Z,3.50
2023-09-27T02:18:09.967Z,3.70
2023-09-27T02:20:37.982Z,3.63
2023-09-27T02:23:05.738Z,3.65
2023-09-27T02:25:33.536Z,3.50
2023-09-27T02:28:01.405Z,3.72
2023-09-27T02:30:29.342Z,3.38
2023-09-27T02:32:58.659Z,3.70
2023-09-27T02:35:26.704Z,3.60
2023-09-27T02:37:54.627Z,3.50
2023-09-27T02:40:22.769Z,3.90
2023-09-27T02:42:50.329Z,3.80
2023-09-27T02:45:18.004Z,3.90
2023-09-27T02:47:47.427Z,3.85
2023-09-27T02:50:17.547Z,3.90
2023-09-27T02:52:45.875Z,3.72
2023-09-27T02:55:15.831Z,3.75
2023-09-27T02:57:44.264Z,3.58
2023-09-27T03:00:12.946Z,3.80
2023-09-27T03:02:40.879Z,3.35
2023-09-27T03:05:10.641Z,3.70
2023-09-27T03:07:40.389Z,3.60
2023-09-27T03:10:11.729Z,3.55
2023-09-27T03:12:41.515Z,3.47
2023-09-27T03:15:12.694Z,4.15
2023-09-27T03:17:41.694Z,3.65
2023-09-27T03:20:15.752Z,3.85
2023-09-27T03:22:45.507Z,3.72
2023-09-27T03:25:13.146Z,3.70
2023-09-27T03:27:41.123Z,3.75
2023-09-27T03:30:09.852Z,3.42
2023-09-27T03:32:37.727Z,3.72
2023-09-27T03:35:08.289Z,3.78
2023-09-27T03:37:36.555Z,3.40
2023-09-27T03:40:14.137Z,3.78
2023-09-27T03:42:44.052Z,3.90
2023-09-27T03:45:12.144Z,3.80
2023-09-27T03:47:40.334Z,3.50
2023-09-27T03:50:08.696Z,4.22
2023-09-27T03:52:36.649Z,4.07
2023-09-27T03:55:06.314Z,3.85
2023-09-27T03:57:34.544Z,3.90
2023-09-27T04:00:02.356Z,3.70
2023-09-27T04:02:32.267Z,3.55
2023-09-27T04:05:00.184Z,4.10
2023-09-27T04:07:27.827Z,3.75
2023-09-27T04:09:55.517Z,4.95
2023-09-27T04:12:24.583Z,4.47
2023-09-27T04:14:52.265Z,4.28
2023-09-27T04:17:20.083Z,3.70
2023-09-27T04:19:47.759Z,4.10
2023-09-27T04:22:15.438Z,4.35
2023-09-27T04:24:43.097Z,4.20
2023-09-27T04:27:10.959Z,4.25
2023-09-27T04:29:40.241Z,4.10
2023-09-27T04:32:07.857Z,3.90
2023-09-27T04:34:35.819Z,4.10
2023-09-27T04:37:03.466Z,4.05
2023-09-27T04:39:32.539Z,4.10
2023-09-27T04:42:00.216Z,3.85
2023-09-27T04:44:29.434Z,4.18
2023-09-27T04:46:59.032Z,4.10
2023-09-27T04:49:27.013Z,3.80
2023-09-27T04:51:54.631Z,3.95
2023-09-27T04:54:22.472Z,4.40
2023-09-27T04:56:50.417Z,4.35
2023-09-27T04:59:18.251Z,4.32
2023-09-27T05:01:45.962Z,4.32
2023-09-27T05:04:14.985Z,4.63
2023-09-27T05:06:43.403Z,4.32
2023-09-27T05:09:12.689Z,5.03
2023-09-27T05:11:41.576Z,4.85
2023-09-27T05:14:09.311Z,4.85
2023-09-27T05:16:38.173Z,4.45
2023-09-27T05:19:06.209Z,4.47
2023-09-27T05:21:35.380Z,5.00
2023-09-27T05:24:03.350Z,5.18
2023-09-27T05:26:31.024Z,4.63
2023-09-27T05:28:59.261Z,4.85
2023-09-27T05:31:27.072Z,5.57
2023-09-27T05:33:54.705Z,5.13
2023-09-27T05:36:22.282Z,4.90
2023-09-27T05:38:52.252Z,5.30
2023-09-27T05:41:22.129Z,4.95
2023-09-27T05:43:49.830Z,5.93
2023-09-27T05:46:17.439Z,5.22
2023-09-27T05:48:45.636Z,5.90
2023-09-27T05:51:18.453Z,5.40
2023-09-27T05:53:48.111Z,5.45
2023-09-27T05:56:17.296Z,5.15
2023-09-27T05:58:44.958Z,5.00
2023-09-27T06:01:14.136Z,5.32
2023-09-27T06:03:44.106Z,5.18
2023-09-27T06:06:11.966Z,4.72
2023-09-27T06:08:39.673Z,4.57
2023-09-27T06:11:10.530Z,4.72
2023-09-27T06:13:40.018Z,4.82
2023-09-27T06:16:15.407Z,4.80
2023-09-27T06:18:43.086Z,4.60
2023-09-27T06:21:10.822Z,4.57
2023-09-27T06:23:42.388Z,4.90
2023-09-27T06:26:11.025Z,4.57
2023-09-27T06:28:40.082Z,5.22
2023-09-27T06:31:08.272Z,4.90
2023-09-27T06:33:39.544Z,4.82
2023-09-27T06:36:08.821Z,4.47
2023-09-27T06:38:38.143Z,5.18
2023-09-27T06:41:06.442Z,5.03
2023-09-27T06:43:34.284Z,4.93
2023-09-27T06:46:11.747Z,4.93
2023-09-27T06:48:42.449Z,3.78
2023-09-27T06:51:12.611Z,5.28
2023-09-27T06:53:40.566Z,5.22
2023-09-27T06:56:08.264Z,4.82
2023-09-27T06:58:35.891Z,4.57
2023-09-27T07:01:05.516Z,6.22
2023-09-27T07:03:35.281Z,6.85
2023-09-27T07:06:03.736Z,6.82
2023-09-27T07:08:31.995Z,5.50
2023-09-27T07:11:05.086Z,5.88
2023-09-27T07:13:32.733Z,5.18
2023-09-27T07:16:00.347Z,5.82
2023-09-27T07:18:29.383Z,5.85
2023-09-27T07:20:57.499Z,6.47
2023-09-27T07:23:24.545Z,6.03
2023-09-27T07:25:53.719Z,6.85
2023-09-27T07:28:21.274Z,6.55
2023-09-27T07:30:48.889Z,5.95
2023-09-27T07:33:18.516Z,5.82
2023-09-27T07:35:52.975Z,4.93
2023-09-27T07:38:20.848Z,5.28
2023-09-27T07:40:48.901Z,5.40
2023-09-27T07:43:17.005Z,5.70
2023-09-27T07:45:45.786Z,6.20
2023-09-27T07:48:13.684Z,5.30
2023-09-27T07:50:41.574Z,4.68
2023-09-27T07:53:10.705Z,4.20
2023-09-27T07:55:44.709Z,4.30
2023-09-27T07:58:13.606Z,4.40
2023-09-27T08:00:41.687Z,4.25
2023-09-27T08:03:10.188Z,4.80
2023-09-27T08:05:44.089Z,4.00
2023-09-27T08:08:14.667Z,4.47
2023-09-27T08:10:44.346Z,3.97
2023-09-27T08:13:13.816Z,3.80
2023-09-27T08:15:42.399Z,3.90
2023-09-27T08:18:11.000Z,3.63
2023-09-27T08:20:39.073Z,3.55
2023-09-27T08:23:06.926Z,3.33
2023-09-27T08:25:38.235Z,3.10
2023-09-27T08:28:07.022Z,3.42
2023-09-27T08:30:34.754Z,3.95
2023-09-27T08:33:03.041Z,3.60
2023-09-27T08:35:31.176Z,3.42
2023-09-27T08:37:58.897Z,3.22
2023-09-27T08:40:26.645Z,3.70
2023-09-27T08:42:59.713Z,3.95
2023-09-27T08:45:28.666Z,3.88
2023-09-27T08:47:56.462Z,3.58
2023-09-27T08:50:25.121Z,3.65
2023-09-27T08:52:53.536Z,4.13
2023-09-27T08:55:21.735Z,3.75
2023-09-27T08:57:50.710Z,3.75
2023-09-27T09:00:23.173Z,3.90
2023-09-27T09:02:53.775Z,4.10
2023-09-27T09:05:23.546Z,4.07
2023-09-27T09:07:51.779Z,3.60
2023-09-27T09:10:19.568Z,3.67
2023-09-27T09:12:48.502Z,3.97
2023-09-27T09:15:36.699Z,3.78
2023-09-27T09:18:07.623Z,4.05
2023-09-27T09:20:50.470Z,3.78
2023-09-27T09:23:32.232Z,4.18
2023-09-27T09:26:00.433Z,4.30
2023-09-27T09:28:28.317Z,4.22
2023-09-27T09:30:57.269Z,3.83
2023-09-27T09:33:26.450Z,4.60
2023-09-27T09:35:54.330Z,4.53
2023-09-27T09:38:27.167Z,4.82
2023-09-27T09:40:55.896Z,3.95
2023-09-27T09:43:34.622Z,4.05
2023-09-27T09:46:07.304Z,4.50
2023-09-27T09:48:36.047Z,4.10
2023-09-27T09:51:08.789Z,3.78
2023-09-27T09:53:41.281Z,4.00
2023-09-27T09:58:45.750Z,3.90
2023-09-27T10:01:20.688Z,4.60
2023-09-27T10:06:26.408Z,4.13
2023-09-27T10:09:02.417Z,4.25
2023-09-27T10:11:30.608Z,3.55
2023-09-27T10:13:58.774Z,3.47
2023-09-27T10:16:27.817Z,3.75
2023-09-27T10:18:56.204Z,3.70
2023-09-27T10:21:24.728Z,3.75
2023-09-27T10:24:00.192Z,3.45
2023-09-27T10:26:37.164Z,3.70
2023-09-27T10:29:14.781Z,3.95
2023-09-27T10:32:21.105Z,4.13
2023-09-27T10:34:53.942Z,3.65
2023-09-27T10:37:57.808Z,3.85
2023-09-27T10:40:26.266Z,3.65
2023-09-27T10:42:53.974Z,3.40
2023-09-27T10:45:22.407Z,3.85
2023-09-27T10:47:51.156Z,3.90
2023-09-27T10:50:32.119Z,3.50
2023-09-27T10:53:00.958Z,3.45
2023-09-27T10:55:43.015Z,3.55
2023-09-27T10:58:13.642Z,3.88
2023-09-27T11:00:52.360Z,3.38
2023-09-27T11:03:20.465Z,3.35
2023-09-27T11:05:49.730Z,3.15
2023-09-27T11:08:22.902Z,3.55
2023-09-27T11:10:53.628Z,3.58
2023-09-27T11:13:22.288Z,2.92
2023-09-27T11:15:49.936Z,2.80
2023-09-27T11:18:17.609Z,3.13
2023-09-27T11:20:45.531Z,3.00
2023-09-27T11:23:14.603Z,3.67
2023-09-27T11:25:44.758Z,2.80
2023-09-27T11:28:16.408Z,2.65
2023-09-27T11:30:44.111Z,2.75
2023-09-27T11:33:14.419Z,2.55
2023-09-27T11:35:49.440Z,2.85
2023-09-27T11:38:18.283Z,3.00
2023-09-27T11:40:47.438Z,3.55
2023-09-27T11:43:15.004Z,2.72
2023-09-27T11:45:47.399Z,2.83
2023-09-27T11:48:15.776Z,2.80
2023-09-27T11:50:43.958Z,2.67
2023-09-27T11:53:12.131Z,3.08
2023-09-27T11:55:43.649Z,2.70
2023-09-27T11:58:11.277Z,2.67
2023-09-27T12:00:38.847Z,2.83
2023-09-27T12:03:07.016Z,2.55
2023-09-27T12:05:36.971Z,2.88
2023-09-27T12:08:05.232Z,2.72
2023-09-27T12:10:33.058Z,2.85
2023-09-27T12:13:02.101Z,2.60
2023-09-27T12:15:30.543Z,2.38
2023-09-27T12:17:58.210Z,2.40
2023-09-27T12:20:39.427Z,2.58
2023-09-27T12:23:10.317Z,2.63
2023-09-27T12:25:38.617Z,2.45
2023-09-27T12:28:07.870Z,2.60
2023-09-27T12:30:35.506Z,2.35
2023-09-27T12:33:03.396Z,2.45
2023-09-27T12:35:31.319Z,2.25
2023-09-27T12:38:00.550Z,2.13
2023-09-27T12:40:28.093Z,2.88
2023-09-27T12:42:55.638Z,2.30
2023-09-27T12:45:24.518Z,3.17
2023-09-27T12:47:52.222Z,2.33
2023-09-27T12:50:25.130Z,2.20
2023-09-27T12:52:52.764Z,2.30
2023-09-27T12:55:21.594Z,2.60
2023-09-27T12:57:50.862Z,2.58
2023-09-27T13:00:18.909Z,2.55
2023-09-27T13:02:48.070Z,2.50
2023-09-27T13:05:16.583Z,2.33
2023-09-27T13:07:44.248Z,2.67
2023-09-27T13:10:11.910Z,2.70
2023-09-27T13:12:42.316Z,2.17
2023-09-27T13:15:11.931Z,2.50
2023-09-27T13:17:39.673Z,2.15
2023-09-27T13:20:11.318Z,2.60
2023-09-27T13:22:39.399Z,2.47
2023-09-27T13:25:08.095Z,2.33
2023-09-27T13:27:35.918Z,2.42
2023-09-27T13:30:04.342Z,2.47
2023-09-27T13:32:32.007Z,2.50
2023-09-27T13:34:59.809Z,2.28
2023-09-27T13:37:28.773Z,2.60
2023-09-27T13:39:57.370Z,2.65
2023-09-27T13:42:25.016Z,2.60
2023-09-27T13:44:53.391Z,2.40
2023-09-27T13:47:21.069Z,2.50
2023-09-27T13:49:49.101Z,2.50
2023-09-27T13:52:16.671Z,2.28
2023-09-27T13:54:45.600Z,2.75
2023-09-27T13:57:13.181Z,2.40
2023-09-27T13:59:41.397Z,2.40
2023-09-27T14:02:09.002Z,2.50
2023-09-27T14:04:36.658Z,2.45
2023-09-27T14:07:04.480Z,2.60
2023-09-27T14:09:32.128Z,2.47
2023-09-27T14:12:01.095Z,2.55
2023-09-27T14:14:29.247Z,2.53
2023-09-27T14:16:58.948Z,2.60
2023-09-27T14:19:26.708Z,2.40
2023-09-27T14:21:54.782Z,2.20
2023-09-27T14:24:24.322Z,2.38
2023-09-27T14:26:52.496Z,2.63
2023-09-27T14:29:29.718Z,2.58
2023-09-27T14:32:05.480Z,2.40
2023-09-27T14:34:41.201Z,2.50
2023-09-27T14:37:10.536Z,2.63
2023-09-27T14:39:38.169Z,2.65
2023-09-27T14:42:06.478Z,2.80
2023-09-27T14:44:35.397Z,3.50
2023-09-27T14:47:03.857Z,2.80
2023-09-27T14:49:31.414Z,2.60
2023-09-27T14:51:58.972Z,2.58
2023-09-27T14:54:26.531Z,2.50
2023-09-27T14:56:54.083Z,2.80
2023-09-27T14:59:21.639Z,2.60
2023-09-27T15:01:50.628Z,2.58
2023-09-27T15:04:18.443Z,2.83
2023-09-27T15:06:46.584Z,2.60
2023-09-27T15:09:14.125Z,2.72
2023-09-27T15:11:41.731Z,2.63
2023-09-27T15:14:09.301Z,2.58
2023-09-27T15:16:37.494Z,2.70
2023-09-27T15:19:06.516Z,2.80
2023-09-27T15:21:34.084Z,2.78
2023-09-27T15:24:02.255Z,3.00
2023-09-27T15:26:29.996Z,3.00
2023-09-27T15:28:57.729Z,2.88
2023-09-27T15:31:25.373Z,2.85
2023-09-27T15:33:53.141Z,2.63
2023-09-27T15:36:22.217Z,2.95
2023-09-27T15:38:49.862Z,2.85
2023-09-27T15:41:17.693Z,2.70
2023-09-27T15:43:45.424Z,2.65
2023-09-27T15:46:16.126Z,2.80
2023-09-27T15:48:44.999Z,2.70
2023-09-27T15:51:16.579Z,2.78
2023-09-27T15:53:45.612Z,2.80
2023-09-27T15:56:13.279Z,2.75
2023-09-27T15:58:40.886Z,2.80
2023-09-27T16:01:09.160Z,2.72
2023-09-27T16:03:39.171Z,2.75
2023-09-27T16:06:06.896Z,3.03
2023-09-27T16:08:34.466Z,2.92
2023-09-27T16:11:04.060Z,2.78
2023-09-27T16:13:31.669Z,2.67
2023-09-27T16:15:59.532Z,3.00
2023-09-27T16:18:27.147Z,2.95
2023-09-27T16:20:54.732Z,3.10
2023-09-27T16:23:22.352Z,2.90
2023-09-27T16:25:50.422Z,3.10
2023-09-27T16:28:19.854Z,2.80
2023-09-27T16:30:48.137Z,2.50
2023-09-27T16:33:15.933Z,2.83
2023-09-27T16:35:43.593Z,2.60
2023-09-27T16:38:11.486Z,2.90
2023-09-27T16:40:40.986Z,2.90
2023-09-27T16:43:08.827Z,3.00
2023-09-27T16:45:39.530Z,2.70
2023-09-27T16:48:07.713Z,2.90
2023-09-27T16:50:35.432Z,3.05
2023-09-27T16:53:03.338Z,3.08
2023-09-27T16:55:30.973Z,2.88
2023-09-27T16:57:58.911Z,2.78
2023-09-27T17:00:27.214Z,2.58
2023-09-27T17:02:56.405Z,2.80
2023-09-27T17:05:24.147Z,2.70
2023-09-27T17:07:51.807Z,2.70
2023-09-27T17:10:19.600Z,3.33
2023-09-27T17:12:47.463Z,2.70
2023-09-27T17:15:15.124Z,3.03
2023-09-27T17:17:42.908Z,3.00
2023-09-27T17:20:12.471Z,2.97
2023-09-27T17:22:40.407Z,3.42
2023-09-27T17:25:09.879Z,3.45
2023-09-27T17:27:37.737Z,2.90
2023-09-27T17:30:06.481Z,4.53
2023-09-27T17:32:34.265Z,2.95
2023-09-27T17:35:02.116Z,3.10
2023-09-27T17:37:31.865Z,3.15
2023-09-27T17:39:59.918Z,3.45
2023-09-27T17:42:27.572Z,3.05
2023-09-27T17:44:55.267Z,2.90
2023-09-27T17:47:23.151Z,3.15
2023-09-27T17:49:51.017Z,3.00
2023-09-27T17:52:18.662Z,3.13
2023-09-27T17:54:48.078Z,3.15
2023-09-27T17:57:17.081Z,3.30
2023-09-27T17:59:46.486Z,3.13
2023-09-27T18:02:14.249Z,3.30
2023-09-27T18:04:42.142Z,2.83
2023-09-27T18:07:09.954Z,3.40
2023-09-27T18:09:38.021Z,3.25
2023-09-27T18:12:08.164Z,3.50
2023-09-27T18:14:36.046Z,3.33
2023-09-27T18:17:03.967Z,3.40
2023-09-27T18:19:31.707Z,3.47
2023-09-27T18:21:59.547Z,3.67
2023-09-27T18:24:27.257Z,3.40
2023-09-27T18:26:55.503Z,3.47
2023-09-27T18:29:24.798Z,3.50
2023-09-27T18:31:52.546Z,3.40
2023-09-27T18:34:20.477Z,3.53
2023-09-27T18:36:49.577Z,3.35
2023-09-27T18:39:17.248Z,3.30
2023-09-27T18:41:45.168Z,3.72
2023-09-27T18:44:13.743Z,3.17
2023-09-27T18:46:43.037Z,4.05
2023-09-27T18:49:10.839Z,3.35
2023-09-27T18:51:38.507Z,3.92
2023-09-27T18:54:08.150Z,3.90
2023-09-27T18:56:36.649Z,4.13
2023-09-27T18:59:05.359Z,3.95
2023-09-27T19:01:33.396Z,3.70
2023-09-27T19:04:03.359Z,3.67
2023-09-27T19:06:32.595Z,3.38
2023-09-27T19:09:00.387Z,4.00
2023-09-27T19:11:31.316Z,3.67
2023-09-27T19:13:59.034Z,3.67
2023-09-27T19:16:30.560Z,3.50
2023-09-27T19:18:58.439Z,3.20
2023-09-27T19:21:27.388Z,3.40
2023-09-27T19:23:55.195Z,3.20
2023-09-27T19:26:24.160Z,3.38
2023-09-27T19:28:52.383Z,3.50
2023-09-27T19:31:20.083Z,3.45
2023-09-27T19:33:48.581Z,3.28
2023-09-27T19:36:20.470Z,3.58
2023-09-27T19:38:50.414Z,3.00
2023-09-27T19:41:18.146Z,3.35
2023-09-27T19:43:45.956Z,3.47
2023-09-27T19:46:13.696Z,3.30
2023-09-27T19:48:42.999Z,3.22
2023-09-27T19:51:12.057Z,3.30
2023-09-27T19:53:39.893Z,3.50
2023-09-27T19:56:08.868Z,3.22
2023-09-27T19:58:36.514Z,3.58
2023-09-27T20:01:04.951Z,3.45
2023-09-27T20:03:32.591Z,3.38
2023-09-27T20:06:00.190Z,4.20
2023-09-27T20:08:27.770Z,3.83
2023-09-27T20:10:55.927Z,3.97
2023-09-27T20:13:24.904Z,3.30
2023-09-27T20:15:52.496Z,4.05
2023-09-27T20:18:20.158Z,3.30
2023-09-27T20:20:47.798Z,3.60
2023-09-27T20:23:15.557Z,3.33
2023-09-27T20:25:44.465Z,3.95
2023-09-27T20:28:12.612Z,4.05
2023-09-27T20:30:41.883Z,3.45
2023-09-27T20:33:09.936Z,3.50
2023-09-27T20:35:38.077Z,3.88
2023-09-27T20:38:09.259Z,3.65
2023-09-27T20:40:37.656Z,3.78
2023-09-27T20:43:05.714Z,4.00
2023-09-27T20:45:33.718Z,3.65
2023-09-27T20:48:02.757Z,3.97
2023-09-27T20:50:30.532Z,3.78
2023-09-27T20:52:57.286Z,4.38
2023-09-27T20:55:25.164Z,3.53
2023-09-27T20:57:52.753Z,4.43
2023-09-27T21:00:23.565Z,3.80
2023-09-27T21:02:51.469Z,3.92
2023-09-27T21:05:20.426Z,3.78
2023-09-27T21:07:50.625Z,3.88
2023-09-27T21:10:18.286Z,3.88
2023-09-27T21:12:46.172Z,3.90
2023-09-27T21:15:13.752Z,4.20
2023-09-27T21:17:41.469Z,3.72
2023-09-27T21:20:10.409Z,3.90
2023-09-27T21:22:39.538Z,3.60
2023-09-27T21:25:08.093Z,3.70
2023-09-27T21:27:36.005Z,3.75
2023-09-27T21:30:04.828Z,3.67
2023-09-27T21:32:33.008Z,3.90
2023-09-27T21:35:01.233Z,3.78
2023-09-27T21:37:28.883Z,3.30
2023-09-27T21:39:58.392Z,3.80
2023-09-27T21:42:25.959Z,3.88
2023-09-27T21:44:53.701Z,3.90
2023-09-27T21:47:21.655Z,3.80
2023-09-27T21:49:49.604Z,3.92
2023-09-27T21:52:17.782Z,4.00
2023-09-27T21:54:45.804Z,3.65
2023-09-27T21:57:16.063Z,3.83
2023-09-27T21:59:43.697Z,3.70
2023-09-27T22:02:12.724Z,3.40
2023-09-27T22:04:40.565Z,3.70
2023-09-27T22:07:08.532Z,3.80
2023-09-27T22:09:36.468Z,3.78
2023-09-27T22:12:05.230Z,3.60
2023-09-27T22:14:36.244Z,3.83
2023-09-27T22:17:09.289Z,3.60
2023-09-27T22:19:37.688Z,3.65
2023-09-27T22:22:05.646Z,3.70
2023-09-27T22:24:33.252Z,3.60
2023-09-27T22:27:02.101Z,3.15
2023-09-27T22:29:32.805Z,3.40
2023-09-27T22:32:02.715Z,3.30
2023-09-27T22:34:38.090Z,3.42
2023-09-27T22:37:08.837Z,3.20
2023-09-27T22:39:41.007Z,3.45
2023-09-27T22:42:13.851Z,3.25
2023-09-27T22:44:42.490Z,3.50
2023-09-27T22:47:11.720Z,3.30
2023-09-27T22:49:41.182Z,3.55
2023-09-27T22:52:10.264Z,3.20
2023-09-27T22:54:39.466Z,3.20
2023-09-27T22:57:07.414Z,3.10
2023-09-27T22:59:38.984Z,3.58
2023-09-27T23:02:10.483Z,3.28
2023-09-27T23:04:42.361Z,3.47
2023-09-27T23:07:17.782Z,3.10
2023-09-27T23:09:48.131Z,3.05
2023-09-27T23:12:19.818Z,3.30
2023-09-27T23:15:10.976Z,2.97
2023-09-27T23:18:01.269Z,3.20
2023-09-27T23:20:32.283Z,3.25
2023-09-27T23:23:07.354Z,3.08
2023-09-27T23:25:53.585Z,3.47
2023-09-27T23:28:31.124Z,3.45
2023-09-27T23:31:09.539Z,3.05
2023-09-27T23:33:42.637Z,3.20
2023-09-27T23:36:24.222Z,3.42
2023-09-27T23:38:58.002Z,3.30
2023-09-27T23:41:30.858Z,2.97
2023-09-27T23:44:01.209Z,3.47
2023-09-27T23:46:30.151Z,3.35
2023-09-27T23:49:02.682Z,3.13
2023-09-27T23:51:31.689Z,3.25
2023-09-27T23:54:00.654Z,3.05
2023-09-27T23:56:30.807Z,3.25
2023-09-27T23:59:08.049Z,3.42
